Time;durP1;ratioP1;P1;durP2;ratioP2;P2;SDS_P1;SDS_P2;PMS_P1;PMS_P2;Temp;Humidity;BMP_temperature;BMP_pressure;BME280_temperature;BME280_humidity;BME280_pressure;Samples;Min_cycle;Max_cycle;Signal;HPM_P1;HPM_P2
2021/08/14 00:00:14;;;;;;;20.30;18.70;;;25.20;99.90;;;;;;2608043;54;20481;-56
2021/08/14 00:02:43;;;;;;;19.63;18.13;;;25.20;99.90;;;;;;2608269;54;20501;-56
2021/08/14 00:05:13;;;;;;;19.60;18.20;;;25.20;99.90;;;;;;2606639;54;20930;-54
2021/08/14 00:07:42;;;;;;;19.47;17.97;;;25.20;99.90;;;;;;2607698;54;20542;-57
2021/08/14 00:10:12;;;;;;;19.60;18.10;;;25.20;99.90;;;;;;2606427;54;20423;-56
2021/08/14 00:12:43;;;;;;;20.13;18.43;;;25.20;99.90;;;;;;2605524;39;20784;-52
2021/08/14 00:15:14;;;;;;;20.10;18.60;;;25.20;99.90;;;;;;2604701;54;20437;-53
2021/08/14 00:17:43;;;;;;;20.47;18.87;;;25.20;99.90;;;;;;2604389;54;20414;-54
2021/08/14 00:20:14;;;;;;;19.83;18.33;;;25.20;99.90;;;;;;2607851;54;20371;-56
2021/08/14 00:22:43;;;;;;;19.50;18.10;;;25.20;99.90;;;;;;2609657;54;20428;-57
2021/08/14 00:25:13;;;;;;;20.67;19.17;;;25.20;99.90;;;;;;2609296;39;21075;-55
2021/08/14 00:27:43;;;;;;;19.87;18.17;;;25.20;99.90;;;;;;2609326;54;20423;-55
2021/08/14 00:30:13;;;;;;;19.50;18.10;;;25.20;99.90;;;;;;2610111;39;20787;-56
2021/08/14 00:32:42;;;;;;;19.67;17.97;;;25.20;99.90;;;;;;2608081;54;20402;-57
2021/08/14 00:35:13;;;;;;;19.50;18.00;;;25.20;99.90;;;;;;2607222;54;20413;-56
2021/08/14 00:37:42;;;;;;;20.20;18.60;;;25.20;99.90;;;;;;2608188;54;20426;-56
2021/08/14 00:40:13;;;;;;;19.40;17.90;;;25.20;99.90;;;;;;2609755;31;20816;-56
2021/08/14 00:42:44;;;;;;;20.17;18.47;;;25.20;99.90;;;;;;2608467;54;20410;-55
2021/08/14 00:45:15;;;;;;;18.33;16.97;;;25.20;99.90;;;;;;2608735;47;20450;-55
2021/08/14 00:47:45;;;;;;;19.30;17.77;;;25.20;99.90;;;;;;2608064;54;20770;-53
2021/08/14 00:50:15;;;;;;;20.03;18.53;;;25.20;99.90;;;;;;2605039;54;20407;-55
2021/08/14 00:52:44;;;;;;;20.10;18.13;;;25.20;99.90;;;;;;2604831;39;20754;-53
2021/08/14 00:55:13;;;;;;;20.33;18.93;;;25.20;99.90;;;;;;2606513;54;20402;-52
2021/08/14 00:57:45;;;;;;;19.23;17.70;;;25.20;99.90;;;;;;2606730;54;20805;-57
2021/08/14 01:00:15;;;;;;;19.20;17.70;;;25.20;99.90;;;;;;2609475;54;20445;-55
2021/08/14 01:02:44;;;;;;;19.47;18.10;;;25.20;99.90;;;;;;2608516;54;20415;-56
2021/08/14 01:05:14;;;;;;;19.83;18.30;;;25.20;99.90;;;;;;2609556;47;20437;-55
2021/08/14 01:07:43;;;;;;;20.10;18.50;;;25.20;99.90;;;;;;2610016;39;20753;-56
2021/08/14 01:10:13;;;;;;;21.33;19.37;;;25.20;99.90;;;;;;2609754;39;20841;-54
2021/08/14 01:12:45;;;;;;;21.10;19.40;;;25.20;99.90;;;;;;2608756;54;20418;-55
2021/08/14 01:15:14;;;;;;;20.37;18.83;;;25.20;99.90;;;;;;2609020;54;20445;-56
2021/08/14 01:17:54;;;;;;;21.03;19.43;;;25.20;99.90;;;;;;2609750;54;20386;-56
2021/08/14 01:20:23;;;;;;;20.47;18.70;;;25.20;99.90;;;;;;2608524;54;20395;-54
2021/08/14 01:22:52;;;;;;;20.60;19.00;;;25.20;99.90;;;;;;2605839;54;20549;-54
2021/08/14 01:25:22;;;;;;;19.77;17.90;;;25.20;99.90;;;;;;2607302;54;20437;-52
2021/08/14 01:27:53;;;;;;;19.40;17.80;;;25.20;99.90;;;;;;2606729;54;20399;-52
2021/08/14 01:30:22;;;;;;;19.27;17.93;;;25.20;99.90;;;;;;2608810;54;20423;-56
2021/08/14 01:32:52;;;;;;;19.73;18.17;;;25.20;99.90;;;;;;2608228;54;20407;-56
2021/08/14 01:35:21;;;;;;;18.90;17.43;;;25.20;99.90;;;;;;2609097;54;20443;-56
2021/08/14 01:37:50;;;;;;;19.43;17.73;;;25.20;99.90;;;;;;2608666;54;20471;-53
2021/08/14 01:40:19;;;;;;;19.30;17.90;;;25.20;99.90;;;;;;2608943;54;20460;-55
2021/08/14 01:42:48;;;;;;;19.87;18.37;;;25.20;99.90;;;;;;2608086;54;20505;-55
2021/08/14 01:45:19;;;;;;;18.33;17.00;;;25.20;99.90;;;;;;2609340;54;20484;-55
2021/08/14 01:47:48;;;;;;;19.17;17.63;;;25.20;99.90;;;;;;2609917;54;20530;-53
2021/08/14 01:50:17;;;;;;;21.20;19.43;;;25.20;99.90;;;;;;2608852;54;20699;-55
2021/08/14 01:52:47;;;;;;;18.57;17.17;;;25.20;99.90;;;;;;2609739;54;20427;-56
2021/08/14 01:55:16;;;;;;;20.00;18.40;;;25.20;99.90;;;;;;2610453;54;21169;-54
2021/08/14 01:57:45;;;;;;;19.23;17.67;;;25.20;99.90;;;;;;2606931;54;20774;-55
2021/08/14 02:00:15;;;;;;;18.37;17.07;;;25.20;99.90;;;;;;2606147;54;20450;-55
2021/08/14 02:02:46;;;;;;;19.80;18.30;;;25.20;99.90;;;;;;2609651;54;20429;-54
2021/08/14 02:05:16;;;;;;;18.07;16.77;;;25.20;99.90;;;;;;2608568;51;20402;-56
2021/08/14 02:07:45;;;;;;;19.83;18.07;;;25.20;99.90;;;;;;2609864;51;20441;-55
2021/08/14 02:10:14;;;;;;;18.40;17.00;;;25.20;99.90;;;;;;2609855;54;20433;-55
2021/08/14 02:12:43;;;;;;;19.83;18.30;;;25.20;99.90;;;;;;2609847;51;20445;-56
2021/08/14 02:15:13;;;;;;;17.80;16.60;;;25.20;99.90;;;;;;2609502;54;20422;-55
2021/08/14 02:17:42;;;;;;;19.60;18.07;;;25.20;99.90;;;;;;2609518;51;21152;-55
2021/08/14 02:20:14;;;;;;;20.13;18.57;;;25.20;99.90;;;;;;2608663;54;20419;-56
2021/08/14 02:22:43;;;;;;;19.70;18.20;;;25.20;99.90;;;;;;2609020;39;21081;-55
2021/08/14 02:25:13;;;;;;;18.80;17.40;;;25.20;99.90;;;;;;2609585;54;20399;-56
2021/08/14 02:27:42;;;;;;;18.67;17.27;;;25.20;99.90;;;;;;2609543;39;21158;-56
2021/08/14 02:30:13;;;;;;;18.47;17.17;;;25.20;99.90;;;;;;2609532;54;20415;-56
2021/08/14 02:32:42;;;;;;;19.10;17.50;;;25.20;99.90;;;;;;2609227;54;20398;-53
2021/08/14 02:35:13;;;;;;;19.97;18.33;;;25.20;99.90;;;;;;2610418;39;21074;-55
2021/08/14 02:37:42;;;;;;;19.50;18.00;;;25.20;99.90;;;;;;2609572;54;20541;-54
2021/08/14 02:40:12;;;;;;;18.63;17.23;;;25.20;99.90;;;;;;2609157;54;20407;-56
2021/08/14 02:42:44;;;;;;;18.13;16.73;;;25.20;99.90;;;;;;2608841;54;20403;-57
2021/08/14 02:45:14;;;;;;;17.07;15.87;;;25.20;99.90;;;;;;2607824;52;20430;-56
2021/08/14 02:47:43;;;;;;;19.07;17.57;;;25.20;99.90;;;;;;2606407;54;20453;-53
2021/08/14 02:50:14;;;;;;;25.47;17.30;;;25.20;99.90;;;;;;2604942;54;20432;-52
2021/08/14 02:52:43;;;;;;;19.13;17.73;;;25.20;99.90;;;;;;2606220;54;20433;-56
2021/08/14 02:55:13;;;;;;;19.70;18.30;;;25.20;99.90;;;;;;2609030;54;20492;-55
2021/08/14 02:57:42;;;;;;;20.13;18.63;;;25.20;99.90;;;;;;2609102;54;20391;-55
2021/08/14 03:00:12;;;;;;;18.30;16.90;;;25.20;99.90;;;;;;2609054;47;20482;-54
2021/08/14 03:02:42;;;;;;;18.67;17.27;;;25.20;99.90;;;;;;2608604;54;20549;-55
2021/08/14 03:05:14;;;;;;;18.87;17.47;;;25.20;99.90;;;;;;2609450;54;20423;-56
2021/08/14 03:07:43;;;;;;;18.20;16.90;;;25.20;99.90;;;;;;2609389;54;20940;-56
2021/08/14 03:10:13;;;;;;;18.87;17.47;;;25.20;99.90;;;;;;2610176;54;20399;-55
2021/08/14 03:12:42;;;;;;;17.97;16.67;;;25.20;99.90;;;;;;2609887;54;20514;-55
2021/08/14 03:15:13;;;;;;;20.37;18.87;;;25.20;99.90;;;;;;2608582;54;20865;-52
2021/08/14 03:17:42;;;;;;;18.90;17.30;;;25.20;99.90;;;;;;2607469;54;20494;-52
2021/08/14 03:20:14;;;;;;;18.90;17.50;;;25.20;99.90;;;;;;2606503;54;20424;-52
2021/08/14 03:22:44;;;;;;;19.90;18.30;;;25.10;99.90;;;;;;2609618;54;20507;-56
2021/08/14 03:25:13;;;;;;;19.80;18.10;;;25.20;99.90;;;;;;2610219;54;21002;-54
2021/08/14 03:27:42;;;;;;;17.97;16.40;;;25.20;99.90;;;;;;2609363;54;20529;-54
2021/08/14 03:30:14;;;;;;;18.37;17.07;;;25.20;99.90;;;;;;2608497;54;20426;-55
2021/08/14 03:32:43;;;;;;;19.10;17.57;;;25.20;99.90;;;;;;2609619;39;21046;-56
2021/08/14 03:35:15;;;;;;;17.90;16.60;;;25.20;99.90;;;;;;2610076;54;20423;-55
2021/08/14 03:37:44;;;;;;;19.20;17.70;;;25.20;99.90;;;;;;2610529;39;20871;-55
2021/08/14 03:40:14;;;;;;;19.07;17.47;;;25.10;99.90;;;;;;2609155;54;20406;-53
2021/08/14 03:42:44;;;;;;;18.20;16.70;;;25.20;99.90;;;;;;2609221;39;21174;-56
2021/08/14 03:45:13;;;;;;;18.53;17.23;;;25.10;99.90;;;;;;2606357;54;20484;-52
2021/08/14 03:47:42;;;;;;;20.10;18.50;;;25.10;99.90;;;;;;2605732;54;20394;-52
2021/08/14 03:50:13;;;;;;;17.40;16.10;;;25.20;99.90;;;;;;2606467;39;20700;-54
2021/08/14 03:52:44;;;;;;;19.80;18.00;;;25.10;99.90;;;;;;2609614;54;20453;-56
2021/08/14 03:55:14;;;;;;;20.00;18.20;;;25.20;99.90;;;;;;2609270;54;20425;-55
2021/08/14 03:57:43;;;;;;;19.70;18.10;;;25.10;99.90;;;;;;2609949;54;20522;-56
2021/08/14 04:00:13;;;;;;;19.20;17.80;;;25.10;99.90;;;;;;2609768;39;20804;-53
2021/08/14 04:02:42;;;;;;;19.07;17.67;;;25.10;99.90;;;;;;2610327;54;20395;-55
2021/08/14 04:05:12;;;;;;;19.37;17.70;;;25.10;99.90;;;;;;2609280;54;20406;-54
2021/08/14 04:07:41;;;;;;;18.57;17.27;;;25.10;99.90;;;;;;2609225;54;20414;-55
2021/08/14 04:10:12;;;;;;;18.87;17.47;;;25.10;99.90;;;;;;2609343;47;20493;-56
2021/08/14 04:12:41;;;;;;;19.73;18.23;;;25.10;99.90;;;;;;2608372;54;20457;-56
2021/08/14 04:15:12;;;;;;;19.87;18.30;;;25.10;99.90;;;;;;2608913;54;20411;-56
2021/08/14 04:17:42;;;;;;;18.90;17.17;;;25.10;99.90;;;;;;2609294;54;20375;-54
2021/08/14 04:20:12;;;;;;;18.90;17.53;;;25.10;99.90;;;;;;2608108;54;20514;-55
2021/08/14 04:22:42;;;;;;;19.07;17.67;;;25.10;99.90;;;;;;2608075;54;20422;-55
2021/08/14 04:25:12;;;;;;;18.23;16.73;;;25.10;99.90;;;;;;2607233;54;20528;-56
2021/08/14 04:27:42;;;;;;;18.63;17.13;;;25.10;99.90;;;;;;2607669;54;20405;-55
2021/08/14 04:30:12;;;;;;;18.73;17.20;;;25.10;99.90;;;;;;2606481;54;20518;-55
2021/08/14 04:32:42;;;;;;;19.53;18.13;;;25.10;99.90;;;;;;2605489;54;20840;-52
2021/08/14 04:35:13;;;;;;;18.50;17.10;;;25.10;99.90;;;;;;2604871;54;20501;-52
2021/08/14 04:37:44;;;;;;;18.50;17.20;;;25.10;99.90;;;;;;2606395;54;20415;-56
2021/08/14 04:40:17;;;;;;;17.93;16.63;;;25.10;99.90;;;;;;2607838;54;20414;-55
2021/08/14 04:42:46;;;;;;;19.97;18.47;;;25.10;99.90;;;;;;2606888;54;20444;-53
2021/08/14 04:45:17;;;;;;;18.93;17.37;;;25.10;99.90;;;;;;2608911;54;20467;-56
2021/08/14 04:47:46;;;;;;;18.30;17.00;;;25.10;99.90;;;;;;2609259;54;20419;-55
2021/08/14 04:50:15;;;;;;;18.40;17.10;;;25.10;99.90;;;;;;2608109;54;20507;-55
2021/08/14 04:52:44;;;;;;;18.20;16.80;;;25.10;99.90;;;;;;2608545;54;21199;-55
2021/08/14 04:55:15;;;;;;;17.50;16.23;;;25.10;99.90;;;;;;2608151;39;21140;-55
2021/08/14 04:57:44;;;;;;;20.00;18.13;;;25.10;99.90;;;;;;2608443;54;20541;-55
2021/08/14 05:00:15;;;;;;;17.90;16.60;;;25.10;99.90;;;;;;2607680;54;20449;-55
2021/08/14 05:02:44;;;;;;;17.53;16.27;;;25.10;99.90;;;;;;2607611;54;20403;-55
2021/08/14 05:05:13;;;;;;;19.03;17.63;;;25.10;99.90;;;;;;2607907;54;20406;-56
2021/08/14 05:07:42;;;;;;;17.80;16.60;;;25.10;99.90;;;;;;2608342;54;20452;-56
2021/08/14 05:10:17;;;;;;;14.93;13.80;;;25.10;99.90;;;;;;2607282;54;20390;-56
2021/08/14 05:12:46;;;;;;;17.10;15.80;;;24.80;99.90;;;;;;2608801;54;21153;-53
2021/08/14 05:15:15;;;;;;;18.20;16.80;;;24.20;99.90;;;;;;2606868;54;20465;-53
2021/08/14 05:17:44;;;;;;;16.53;15.40;;;23.70;99.90;;;;;;2606163;54;20409;-54
2021/08/14 05:20:13;;;;;;;16.20;14.80;;;23.30;99.90;;;;;;2606281;39;20723;-53
2021/08/14 05:22:43;;;;;;;18.37;16.80;;;23.00;99.90;;;;;;2605593;54;20452;-53
2021/08/14 05:25:12;;;;;;;17.03;15.73;;;22.90;99.90;;;;;;2607707;54;20422;-55
2021/08/14 05:27:43;;;;;;;15.60;14.70;;;22.80;99.90;;;;;;2608229;54;20459;-55
2021/08/14 05:30:13;;;;;;;17.17;15.83;;;22.60;99.90;;;;;;2608110;54;20946;-56
2021/08/14 05:32:42;;;;;;;17.83;16.37;;;22.50;99.90;;;;;;2606877;54;20378;-55
2021/08/14 05:35:12;;;;;;;16.40;15.30;;;22.40;99.90;;;;;;2608360;54;20526;-56
2021/08/14 05:37:42;;;;;;;16.73;15.67;;;22.30;99.90;;;;;;2608517;54;21219;-55
2021/08/14 05:40:12;;;;;;;16.93;15.73;;;22.30;99.90;;;;;;2608671;50;20391;-55
2021/08/14 05:42:43;;;;;;;17.23;15.83;;;22.40;99.90;;;;;;2607280;54;20429;-55
2021/08/14 05:45:13;;;;;;;17.40;16.00;;;22.30;99.90;;;;;;2608745;54;20553;-56
2021/08/14 05:47:42;;;;;;;17.37;16.07;;;22.30;99.90;;;;;;2608117;54;20433;-54
2021/08/14 05:50:13;;;;;;;17.87;16.60;;;22.30;99.90;;;;;;2607854;46;20418;-55
2021/08/14 05:52:42;;;;;;;17.77;16.33;;;22.30;99.90;;;;;;2608412;54;20417;-54
2021/08/14 05:55:12;;;;;;;17.43;16.17;;;22.30;99.90;;;;;;2608776;54;20430;-55
2021/08/14 05:57:42;;;;;;;16.47;15.37;;;22.20;99.90;;;;;;2607931;54;20449;-56
2021/08/14 06:00:13;;;;;;;16.90;15.80;;;22.00;99.90;;;;;;2608184;54;20561;-55
2021/08/14 06:02:42;;;;;;;16.20;15.07;;;22.10;99.90;;;;;;2608565;54;20429;-55
2021/08/14 06:05:12;;;;;;;17.33;15.77;;;22.20;99.90;;;;;;2606766;54;20874;-52
2021/08/14 06:07:42;;;;;;;16.50;15.17;;;22.20;99.90;;;;;;2604886;54;20917;-52
2021/08/14 06:10:12;;;;;;;16.10;15.07;;;22.30;99.90;;;;;;2604412;54;21036;-53
2021/08/14 06:12:43;;;;;;;17.17;15.87;;;22.30;99.90;;;;;;2605094;54;20513;-54
2021/08/14 06:15:13;;;;;;;16.00;15.00;;;22.40;99.90;;;;;;2604601;54;20446;-56
2021/08/14 06:17:43;;;;;;;17.07;15.87;;;22.40;99.90;;;;;;2606528;39;20791;-55
2021/08/14 06:20:14;;;;;;;15.73;14.60;;;22.50;99.90;;;;;;2605745;54;21143;-52
2021/08/14 06:22:44;;;;;;;17.27;16.07;;;22.60;99.90;;;;;;2606460;47;20415;-56
2021/08/14 06:25:14;;;;;;;17.17;15.90;;;22.50;99.90;;;;;;2605183;54;20579;-55
2021/08/14 06:27:45;;;;;;;16.13;15.10;;;22.60;99.90;;;;;;2606376;54;20406;-55
2021/08/14 06:30:15;;;;;;;17.23;15.90;;;22.70;99.90;;;;;;2605382;54;20561;-56
2021/08/14 06:32:45;;;;;;;17.40;16.10;;;22.80;99.90;;;;;;2606382;47;20383;-57
2021/08/14 06:35:14;;;;;;;18.73;17.33;;;22.80;99.90;;;;;;2606133;54;20414;-57
2021/08/14 06:37:43;;;;;;;16.77;15.47;;;22.80;99.90;;;;;;2606485;54;20521;-57
2021/08/14 06:40:13;;;;;;;17.73;16.40;;;22.90;99.90;;;;;;2603563;52;20411;-56
2021/08/14 06:42:44;;;;;;;18.10;16.80;;;22.90;99.90;;;;;;2606746;47;20418;-57
2021/08/14 06:45:14;;;;;;;17.93;16.70;;;22.90;99.90;;;;;;2606925;54;20430;-56
2021/08/14 06:47:44;;;;;;;18.80;17.40;;;23.10;99.90;;;;;;2606937;54;20445;-56
2021/08/14 06:50:13;;;;;;;19.00;17.60;;;23.10;99.90;;;;;;2605351;54;20391;-57
2021/08/14 06:52:42;;;;;;;18.67;17.37;;;23.20;99.90;;;;;;2605098;54;20399;-57
2021/08/14 06:55:12;;;;;;;17.83;16.53;;;23.20;99.90;;;;;;2604403;54;21251;-56
2021/08/14 06:57:42;;;;;;;19.83;18.00;;;23.30;99.90;;;;;;2604495;54;20417;-56
2021/08/14 07:00:14;;;;;;;19.07;17.53;;;23.40;99.90;;;;;;2602963;54;20442;-57
2021/08/14 07:02:44;;;;;;;19.40;17.90;;;23.50;99.90;;;;;;2605255;51;20387;-55
2021/08/14 07:05:14;;;;;;;17.50;16.10;;;23.60;99.90;;;;;;2604408;54;20418;-56
2021/08/14 07:07:43;;;;;;;17.07;15.87;;;23.70;99.90;;;;;;2602838;54;20428;-53
2021/08/14 07:10:13;;;;;;;17.73;16.07;;;23.80;99.90;;;;;;2601860;54;20382;-56
2021/08/14 07:12:43;;;;;;;17.53;16.20;;;23.80;99.90;;;;;;2605241;54;20419;-56
2021/08/14 07:15:15;;;;;;;17.83;16.53;;;23.90;99.90;;;;;;2605145;47;20443;-56
2021/08/14 07:17:44;;;;;;;16.83;15.63;;;24.00;99.90;;;;;;2603147;54;20993;-54
2021/08/14 07:20:14;;;;;;;16.90;15.60;;;24.10;99.90;;;;;;2603486;54;20403;-57
2021/08/14 07:22:44;;;;;;;18.73;17.20;;;24.20;99.90;;;;;;2603084;54;20426;-56
2021/08/14 07:25:13;;;;;;;17.43;16.10;;;24.30;99.90;;;;;;2603728;54;20390;-56
2021/08/14 07:27:42;;;;;;;18.00;16.50;;;24.30;99.90;;;;;;2602311;54;20426;-56
2021/08/14 07:30:15;;;;;;;19.00;17.60;;;24.40;99.90;;;;;;2603832;54;20429;-57
2021/08/14 07:32:44;;;;;;;19.40;17.80;;;24.40;99.90;;;;;;2602393;54;20509;-57
2021/08/14 07:35:13;;;;;;;18.83;17.23;;;24.50;99.90;;;;;;2601524;39;20764;-57
2021/08/14 07:37:50;;;;;;;18.60;17.30;;;24.50;99.90;;;;;;2601205;39;21121;-57
2021/08/14 07:40:20;;;;;;;19.97;18.27;;;24.60;99.90;;;;;;2602764;54;20399;-58
2021/08/14 07:42:50;;;;;;;19.57;18.00;;;24.60;99.90;;;;;;2602127;54;20399;-56
2021/08/14 07:45:21;;;;;;;19.10;17.40;;;24.60;99.90;;;;;;2599913;54;20444;-56
2021/08/14 07:47:51;;;;;;;20.43;18.87;;;24.60;99.90;;;;;;2598843;54;20818;-53
2021/08/14 07:50:22;;;;;;;20.10;18.50;;;24.70;99.90;;;;;;2594353;54;20399;-56
2021/08/14 07:52:51;;;;;;;22.40;20.70;;;24.70;99.90;;;;;;2598635;54;20419;-58
2021/08/14 07:55:22;;;;;;;20.87;19.13;;;24.70;99.90;;;;;;2599603;54;20421;-57
2021/08/14 07:57:51;;;;;;;19.33;17.93;;;24.70;99.90;;;;;;2601990;54;20402;-57
2021/08/14 08:00:23;;;;;;;18.67;17.23;;;24.70;99.90;;;;;;2601371;54;20525;-55
2021/08/14 08:02:53;;;;;;;19.63;18.07;;;24.70;99.90;;;;;;2602987;54;20423;-57
2021/08/14 08:05:22;;;;;;;19.93;18.23;;;24.80;99.90;;;;;;2603473;54;20408;-58
2021/08/14 08:07:52;;;;;;;19.53;17.80;;;24.80;99.90;;;;;;2603968;54;20401;-57
2021/08/14 08:10:24;;;;;;;21.10;19.50;;;24.80;99.90;;;;;;2601176;54;20407;-57
2021/08/14 08:12:55;;;;;;;21.00;19.13;;;24.80;99.90;;;;;;2601431;54;20406;-57
2021/08/14 08:15:26;;;;;;;21.03;19.23;;;24.80;99.90;;;;;;2599573;54;20419;-57
2021/08/14 08:17:56;;;;;;;19.97;18.57;;;24.80;99.90;;;;;;2597985;47;21329;-57
2021/08/14 08:20:26;;;;;;;19.87;18.43;;;24.80;99.90;;;;;;2598312;54;20409;-57
2021/08/14 08:22:55;;;;;;;21.50;19.77;;;24.80;99.90;;;;;;2598174;54;20418;-56
2021/08/14 08:25:24;;;;;;;20.70;19.10;;;24.80;99.90;;;;;;2598521;54;20447;-58
2021/08/14 08:27:55;;;;;;;20.80;19.20;;;24.80;99.90;;;;;;2600016;54;20426;-58
2021/08/14 08:30:26;;;;;;;21.70;19.90;;;24.80;99.90;;;;;;2601023;54;20422;-57
2021/08/14 08:32:55;;;;;;;21.63;19.73;;;24.80;99.90;;;;;;2601959;54;20371;-58
2021/08/14 08:35:24;;;;;;;21.13;19.53;;;24.80;99.90;;;;;;2596395;47;20772;-57
2021/08/14 08:37:53;;;;;;;20.07;18.40;;;24.80;99.90;;;;;;2597998;47;20415;-57
2021/08/14 08:40:23;;;;;;;21.77;19.97;;;24.80;99.90;;;;;;2599020;54;20453;-57
2021/08/14 08:42:53;;;;;;;21.30;19.50;;;24.90;99.90;;;;;;2599264;54;20424;-57
2021/08/14 08:45:22;;;;;;;22.77;20.80;;;24.80;99.90;;;;;;2599464;54;20422;-56
2021/08/14 08:48:01;;;;;;;21.37;19.43;;;24.80;99.90;;;;;;2598283;54;20954;-56
2021/08/14 08:50:37;;;;;;;21.43;19.77;;;24.90;99.90;;;;;;2600202;47;20445;-58
2021/08/14 08:53:07;;;;;;;21.60;20.00;;;24.90;99.90;;;;;;2600542;54;21195;-58
2021/08/14 08:55:38;;;;;;;20.43;18.93;;;24.90;99.90;;;;;;2599633;54;20410;-55
2021/08/14 08:58:07;;;;;;;19.83;18.23;;;24.90;99.90;;;;;;2598847;54;20456;-57
2021/08/14 09:00:40;;;;;;;21.00;19.13;;;24.90;99.90;;;;;;2599591;54;20483;-58
2021/08/14 09:03:13;;;;;;;20.20;18.50;;;24.90;99.90;;;;;;2599022;54;21285;-57
2021/08/14 09:05:51;;;;;;;21.07;19.47;;;24.90;99.90;;;;;;2599431;54;20573;-58
2021/08/14 09:08:21;;;;;;;20.27;18.67;;;24.90;99.90;;;;;;2596995;54;20770;-53
2021/08/14 09:10:51;;;;;;;19.67;18.07;;;24.90;99.90;;;;;;2596391;54;20406;-57
2021/08/14 09:13:21;;;;;;;20.70;19.00;;;24.90;99.90;;;;;;2597002;39;20665;-53
2021/08/14 09:15:51;;;;;;;19.47;18.07;;;24.90;99.90;;;;;;2592312;47;20425;-55
2021/08/14 09:18:22;;;;;;;21.03;19.40;;;24.90;99.90;;;;;;2597453;54;20415;-56
2021/08/14 09:20:56;;;;;;;21.10;19.50;;;24.90;99.90;;;;;;2600240;54;20383;-57
2021/08/14 09:23:26;;;;;;;20.50;19.10;;;24.90;99.90;;;;;;2598201;54;20399;-57
2021/08/14 09:25:56;;;;;;;20.33;18.87;;;24.90;99.90;;;;;;2598930;54;20426;-57
2021/08/14 09:28:35;;;;;;;21.77;20.17;;;24.90;99.90;;;;;;2598511;54;20403;-56
2021/08/14 09:31:07;;;;;;;21.13;19.43;;;25.00;99.90;;;;;;2600307;54;20537;-58
2021/08/14 09:33:39;;;;;;;21.30;19.30;;;25.00;99.90;;;;;;2600701;54;20553;-57
2021/08/14 09:36:10;;;;;;;20.70;19.30;;;25.00;99.90;;;;;;2599369;47;20969;-57
2021/08/14 09:38:42;;;;;;;20.67;19.37;;;25.00;99.90;;;;;;2599912;47;20464;-57
2021/08/14 09:41:13;;;;;;;20.83;19.30;;;25.00;99.90;;;;;;2601074;39;20811;-57
2021/08/14 09:43:43;;;;;;;20.63;18.93;;;25.00;99.90;;;;;;2597938;54;20442;-58
2021/08/14 09:46:12;;;;;;;21.13;19.73;;;25.00;99.90;;;;;;2597578;54;20421;-57
2021/08/14 09:48:44;;;;;;;20.27;18.77;;;25.00;99.90;;;;;;2599218;54;20387;-57
2021/08/14 09:51:30;;;;;;;20.73;19.10;;;25.00;99.90;;;;;;2599418;54;20387;-56
2021/08/14 09:54:01;;;;;;;20.20;18.37;;;25.00;99.90;;;;;;2599610;54;21249;-57
2021/08/14 09:56:34;;;;;;;19.87;18.57;;;25.00;99.90;;;;;;2599412;54;20399;-57
2021/08/14 09:59:04;;;;;;;20.93;19.40;;;25.00;99.90;;;;;;2599361;54;20953;-56
2021/08/14 10:01:35;;;;;;;20.80;19.20;;;25.00;99.90;;;;;;2595538;54;20402;-55
2021/08/14 10:04:06;;;;;;;20.57;18.87;;;25.00;99.90;;;;;;2596097;54;20790;-54
2021/08/14 10:06:36;;;;;;;19.53;18.13;;;25.00;99.90;;;;;;2598538;54;20873;-55
2021/08/14 10:09:06;;;;;;;20.27;18.77;;;25.00;99.90;;;;;;2596573;54;20423;-58
2021/08/14 10:11:38;;;;;;;20.73;19.27;;;25.00;99.90;;;;;;2600920;54;20367;-58
2021/08/14 10:14:07;;;;;;;20.30;18.70;;;25.00;99.90;;;;;;2602336;39;20756;-57
2021/08/14 10:16:38;;;;;;;20.03;18.50;;;25.00;99.90;;;;;;2601062;54;20445;-57
2021/08/14 10:19:08;;;;;;;20.20;18.70;;;25.00;99.90;;;;;;2598951;54;20414;-58
2021/08/14 10:21:41;;;;;;;20.03;18.70;;;25.00;99.90;;;;;;2600597;54;20419;-58
2021/08/14 10:24:11;;;;;;;20.90;19.30;;;25.00;99.90;;;;;;2597974;47;21495;-57
2021/08/14 10:26:40;;;;;;;20.70;19.30;;;25.00;99.90;;;;;;2603157;54;20956;-58
2021/08/14 10:29:09;;;;;;;20.40;18.80;;;25.00;99.90;;;;;;2594771;54;20442;-57
2021/08/14 10:31:50;;;;;;;19.40;17.70;;;25.00;99.90;;;;;;2600644;54;20423;-58
2021/08/14 10:34:34;;;;;;;20.30;18.70;;;25.00;99.90;;;;;;2601467;54;20493;-58
2021/08/14 10:37:23;;;;;;;20.20;18.30;;;25.00;99.90;;;;;;2601405;54;20391;-57
2021/08/14 10:39:56;;;;;;;24.73;22.63;;;25.00;99.90;;;;;;2601942;39;21056;-58
2021/08/14 10:42:57;;;;;;;47.60;42.80;;;25.00;99.90;;;;;;2601016;54;21270;-57
2021/08/14 10:45:35;;;;;;;61.83;53.17;;;25.00;99.90;;;;;;2599917;54;20442;-57
2021/08/14 10:48:05;;;;;;;61.13;49.90;;;25.10;99.90;;;;;;2600539;54;20497;-58
2021/08/14 10:51:01;;;;;;;65.73;57.57;;;25.00;99.90;;;;;;2596703;54;20453;-56
2021/08/14 10:53:50;;;;;;;69.43;57.13;;;25.10;99.90;;;;;;2593398;54;21014;-57
2021/08/14 10:56:52;;;;;;;57.50;49.60;;;25.10;99.90;;;;;;2598223;47;20394;-57
2021/08/14 10:59:54;;;;;;;54.50;48.80;;;25.10;99.90;;;;;;2599086;54;20453;-57
2021/08/14 11:02:35;;;;;;;60.37;46.90;;;25.10;99.90;;;;;;2598514;54;20403;-57
2021/08/14 11:05:05;;;;;;;54.33;48.90;;;25.10;99.90;;;;;;2599762;54;20391;-57
2021/08/14 11:07:35;;;;;;;53.03;47.43;;;25.10;99.90;;;;;;2601442;47;20510;-55
2021/08/14 11:10:13;;;;;;;54.73;47.40;;;25.10;99.90;;;;;;2597961;54;20447;-57
2021/08/14 11:12:43;;;;;;;51.73;46.10;;;25.10;99.90;;;;;;2595894;54;20403;-57
2021/08/14 11:15:18;;;;;;;50.70;45.20;;;25.10;99.90;;;;;;2599057;54;20423;-57
2021/08/14 11:17:48;;;;;;;47.10;41.93;;;25.00;99.90;;;;;;2600009;54;20432;-55
2021/08/14 11:20:34;;;;;;;45.83;41.03;;;25.10;99.90;;;;;;2599804;54;20403;-57
2021/08/14 11:23:22;;;;;;;45.80;40.87;;;25.10;99.90;;;;;;2599031;54;20390;-56
2021/08/14 11:25:52;;;;;;;45.53;40.83;;;25.00;99.90;;;;;;2598388;54;20387;-57
2021/08/14 11:28:25;;;;;;;44.63;39.93;;;25.10;99.90;;;;;;2600177;54;20505;-56
2021/08/14 11:30:59;;;;;;;44.10;38.23;;;25.10;99.90;;;;;;2601777;39;20773;-57
2021/08/14 11:33:30;;;;;;;41.33;37.10;;;25.00;99.90;;;;;;2595964;54;20366;-53
2021/08/14 11:36:08;;;;;;;39.67;35.87;;;25.00;99.90;;;;;;2601551;54;20418;-56
2021/08/14 11:38:41;;;;;;;38.17;34.77;;;25.10;99.90;;;;;;2600207;54;20418;-57
2021/08/14 11:41:14;;;;;;;35.00;31.80;;;25.10;99.90;;;;;;2598922;54;20387;-57
2021/08/14 11:43:44;;;;;;;35.77;32.13;;;25.10;99.90;;;;;;2599023;54;20410;-57
2021/08/14 11:46:14;;;;;;;37.07;33.07;;;25.10;99.90;;;;;;2599523;54;20411;-57
2021/08/14 11:48:45;;;;;;;35.47;31.87;;;25.10;99.90;;;;;;2598674;54;20403;-57
2021/08/14 11:51:21;;;;;;;34.97;31.73;;;25.10;99.90;;;;;;2598203;54;20422;-57
2021/08/14 11:54:05;;;;;;;33.63;30.37;;;25.10;99.90;;;;;;2601619;54;20403;-58
2021/08/14 11:56:34;;;;;;;31.30;28.20;;;25.10;99.90;;;;;;2600693;54;20417;-57
2021/08/14 11:59:03;;;;;;;30.83;28.00;;;25.10;99.90;;;;;;2601177;54;20441;-58
2021/08/14 12:01:33;;;;;;;32.40;29.00;;;25.10;99.90;;;;;;2600976;54;20400;-57
2021/08/14 12:04:03;;;;;;;30.43;27.63;;;25.10;99.90;;;;;;2601265;54;20410;-57
2021/08/14 12:06:34;;;;;;;31.43;28.47;;;25.10;99.90;;;;;;2598854;54;20502;-57
2021/08/14 12:09:06;;;;;;;29.17;26.43;;;25.10;99.90;;;;;;2599341;54;20390;-57
2021/08/14 12:11:36;;;;;;;31.70;28.63;;;25.10;99.90;;;;;;2599849;54;20403;-57
2021/08/14 12:14:15;;;;;;;30.00;27.10;;;25.10;99.90;;;;;;2601400;54;20418;-57
2021/08/14 12:16:46;;;;;;;30.93;27.90;;;25.10;99.90;;;;;;2604597;54;20410;-57
2021/08/14 12:19:17;;;;;;;25.53;23.40;;;25.10;99.90;;;;;;2604590;54;20414;-57
2021/08/14 12:21:48;;;;;;;27.97;25.37;;;25.10;99.90;;;;;;2603507;54;20887;-56
2021/08/14 12:24:19;;;;;;;28.30;25.90;;;25.10;99.90;;;;;;2602205;54;20410;-56
2021/08/14 12:26:48;;;;;;;26.10;23.90;;;25.10;99.90;;;;;;2598684;39;20677;-55
2021/08/14 12:29:18;;;;;;;28.47;25.80;;;25.10;99.90;;;;;;2597231;54;20414;-54
2021/08/14 12:31:52;;;;;;;25.70;23.43;;;25.10;99.90;;;;;;2598052;54;20398;-53
2021/08/14 12:34:26;;;;;;;26.17;24.07;;;25.10;99.90;;;;;;2598487;54;20782;-54
2021/08/14 12:37:09;;;;;;;27.57;25.10;;;25.10;99.90;;;;;;2597989;54;21169;-57
2021/08/14 12:39:55;;;;;;;26.77;24.57;;;25.10;99.90;;;;;;2601284;54;20395;-57
2021/08/14 12:42:28;;;;;;;25.37;23.33;;;25.10;99.90;;;;;;2601741;54;20490;-57
2021/08/14 12:44:58;;;;;;;26.47;24.27;;;25.10;99.90;;;;;;2600102;54;21235;-56
2021/08/14 12:47:29;;;;;;;27.50;25.07;;;25.10;99.90;;;;;;2598399;49;20906;-53